This demonstration page uses our WeatherBlox Daily Observations layout. Learn more.

41.55636, -103.73856

Hourly Observations for May 14, 2019

Temp ( °F °C ) Dew Point ( °F °C ) Humidity (%) Winds ( mph kmh ) Pressure ( in mb ) Visibility ( mi km ) Precip ( " mm )
12:58 am 00:58 undefined 68 20.2 35 1.9 30 30 NNW 15 24 29.8 1009 10 16.0934 0 0
1:58 am 01:58 undefined 64 17.7 36 2.2 36 36 WNW 12 19 29.84 1010 10 16.0934 0 0
2:58 am 02:58 undefined 58 14.5 39 3.7 49 49 W 8 13 29.85 1011 10 16.0934 0 0
3:58 am 03:58 undefined 59 15.1 37 3 44 44 WSW 14 22 29.85 1011 10 16.0934 0 0
4:58 am 04:58 undefined 57 13.8 37 2.7 47 47 WSW 12 19 29.83 1010 10 16.0934 0 0
5:58 am 05:58 undefined 53 11.7 37 2.9 55 55 W 14 22 29.84 1010 10 16.0934 0 0
6:58 am 06:58 undefined 52 10.9 37 3 58 58 W 14 22 29.85 1011 10 16.0934 0 0
7:58 am 07:58 undefined 51 10.7 38 3.2 60 60 WSW 12 19 29.86 1011 10 16.0934 0 0
8:58 am 08:58 undefined 54 12.4 37 2.9 53 53 WSW 12 19 29.85 1011 10 16.0934 0 0
9:58 am 09:58 undefined 55 12.7 37 2.5 50 50 W 12 19 29.86 1011 10 16.0934 0 0
10:58 am 10:58 undefined 47 8.6 36 2.4 65 65 WNW 6 9 29.88 1012 10 16.0934 0 0
11:58 am 11:58 undefined 47 8.3 36 2.2 66 66 N 3 6 29.9 1012 10 16.0934 0 0
12:58 pm 12:58 undefined 53 11.8 39 4.1 60 60 W 3 6 29.9 1013 10 16.0934 0 0
1:58 pm 13:58 undefined 58 14.6 38 3.6 48 48 Calm 29.91 1013 10 16.0934 0 0
3:58 pm 15:58 undefined 67 19.5 37 2.9 33 33 Calm 29.9 1013 10 16.0934 0 0
4:58 pm 16:58 undefined 71 21.6 37 2.9 29 29 NNW 5 7 29.91 1013 10 16.0934 0 0
5:58 pm 17:58 undefined 73 22.8 35 1.7 25 25 NNW 5 7 29.92 1013 10 16.0934 0 0
6:58 pm 18:58 undefined 74 23.5 38 3.3 27 27 NNW 7 11 29.89 1012 10 16.0934 0 0
7:58 pm 19:58 undefined 76 24.3 37 3 25 25 NW 14 22 29.89 1012 10 16.0934 0 0
8:58 pm 20:58 undefined 76 24.7 36 2.2 23 23 NNW 13 20 29.86 1011 10 16.0934 0 0
9:58 pm 21:58 undefined 76 24.7 38 3.1 25 25 N 13 20 29.84 1010 10 16.0934 0 0
10:58 pm 22:58 undefined 77 24.9 34 1 21 21 NE 8 13 29.86 1011 10 16.0934 0 0
11:58 pm 23:58 undefined 75 24 35 1.9 24 24 N 6 9 29.87 1011 10 16.0934 0 0

Powered by AerisWeather